Time,TemperatureF,DewpointF,PressureIn,WindDirection,WindDirectionDegrees,WindSpeedMPH,WindSpeedGustMPH,Humidity,HourlyPrecipIn,Conditions,Clouds,dailyrainin,SoftwareType,DateUTC
2013-08-04 00:02:00,88.0,71.0,29.64,SSW,206,1.0,-999.0,58,0.00,,,0.00,,2013-08-04 05:02:00,
2013-08-04 00:12:00,88.0,71.0,29.64,SSW,206,1.0,-999.0,58,0.00,,,0.00,,2013-08-04 05:12:00,
2013-08-04 00:22:00,86.0,72.0,29.66,SSE,162,1.0,-999.0,64,0.00,,,0.00,,2013-08-04 05:22:00,
2013-08-04 00:32:00,86.0,72.0,29.66,SSE,162,1.0,-999.0,64,0.00,,,0.00,,2013-08-04 05:32:00,
2013-08-04 00:42:00,85.0,-99.9,-100.00,ESE,113,0.0,-999.0,-999,-99.99,,,-99.99,,2013-08-04 05:42:00,
2013-08-04 00:52:00,85.0,73.0,29.67,East,94,1.0,-999.0,67,0.00,,,0.00,,2013-08-04 05:52:00,
2013-08-04 01:02:00,84.0,72.0,29.67,SE,127,1.0,-999.0,68,0.00,,,0.00,,2013-08-04 06:02:00,
2013-08-04 01:12:00,84.0,72.0,29.67,SE,127,1.0,-999.0,68,0.00,,,0.00,,2013-08-04 06:12:00,
2013-08-04 01:22:00,84.0,73.0,29.67,SE,140,3.0,-999.0,69,0.00,,,0.00,,2013-08-04 06:22:00,
2013-08-04 01:32:00,83.0,73.0,29.68,SE,146,1.0,-999.0,71,0.00,,,0.00,,2013-08-04 06:32:00,
2013-08-04 01:43:00,83.0,73.0,29.68,SE,140,4.0,-999.0,71,0.00,,,0.00,,2013-08-04 06:43:00,
2013-08-04 01:52:00,82.0,72.0,29.68,ESE,105,2.0,-999.0,72,0.00,,,0.00,,2013-08-04 06:52:00,
2013-08-04 02:02:00,82.0,73.0,29.68,South,176,4.0,-999.0,75,0.00,,,0.00,,2013-08-04 07:02:00,
2013-08-04 02:12:00,82.0,73.0,29.68,ESE,121,0.0,-999.0,75,0.00,,,0.00,,2013-08-04 07:12:00,
2013-08-04 02:22:00,82.0,73.0,29.68,ESE,121,0.0,-999.0,75,0.00,,,0.00,,2013-08-04 07:22:00,
2013-08-04 02:32:00,81.0,73.0,29.68,ESE,110,0.0,-999.0,76,0.00,,,0.00,,2013-08-04 07:32:00,
2013-08-04 02:42:00,81.0,73.0,29.68,SE,132,0.0,-999.0,77,0.00,,,0.00,,2013-08-04 07:42:00,
2013-08-04 02:52:00,81.0,73.0,29.68,South,185,0.0,-999.0,78,0.00,,,0.00,,2013-08-04 07:52:00,
2013-08-04 03:02:00,80.0,72.0,29.68,South,173,0.0,-999.0,78,0.00,,,0.00,,2013-08-04 08:02:00,
2013-08-04 03:12:00,80.0,72.0,29.68,South,173,0.0,-999.0,78,0.00,,,0.00,,2013-08-04 08:12:00,
2013-08-04 03:22:00,80.0,72.0,29.68,ESE,120,0.0,-999.0,78,0.00,,,0.00,,2013-08-04 08:22:00,
2013-08-04 03:32:00,80.0,72.0,29.68,SE,136,0.0,-999.0,78,0.00,,,0.00,,2013-08-04 08:32:00,
2013-08-04 03:43:00,79.0,72.0,29.68,SE,143,1.0,-999.0,79,0.00,,,0.00,,2013-08-04 08:43:00,
2013-08-04 03:53:00,79.0,72.0,29.68,SE,143,1.0,-999.0,79,0.00,,,0.00,,2013-08-04 08:53:00,
2013-08-04 04:02:00,79.0,72.0,29.68,SE,131,0.0,-999.0,80,0.00,,,0.00,,2013-08-04 09:02:00,
2013-08-04 04:12:00,79.0,72.0,29.68,SSE,153,1.0,-999.0,80,0.00,,,0.00,,2013-08-04 09:12:00,
2013-08-04 04:22:00,79.0,72.0,29.68,SSE,153,1.0,-999.0,80,0.00,,,0.00,,2013-08-04 09:22:00,
2013-08-04 04:32:00,79.0,73.0,29.69,SSE,167,2.0,-999.0,82,0.00,,,0.00,,2013-08-04 09:32:00,
2013-08-04 04:43:00,79.0,73.0,29.68,SSE,155,0.0,-999.0,82,0.00,,,0.00,,2013-08-04 09:43:00,
2013-08-04 04:52:00,79.0,73.0,29.68,SW,232,3.0,-999.0,82,0.00,,,0.00,,2013-08-04 09:52:00,
2013-08-04 05:02:00,79.0,73.0,29.67,SSE,147,2.0,-999.0,82,0.00,,,0.00,,2013-08-04 10:02:00,
2013-08-04 05:12:00,79.0,73.0,29.67,SSE,167,1.0,-999.0,82,0.00,,,0.00,,2013-08-04 10:12:00,
2013-08-04 05:22:00,79.0,73.0,29.67,SSE,159,2.0,-999.0,83,0.00,,,0.00,,2013-08-04 10:22:00,
2013-08-04 05:32:00,78.0,72.0,29.67,SW,217,1.0,-999.0,83,0.00,,,0.00,,2013-08-04 10:32:00,
2013-08-04 05:42:00,78.0,73.0,29.66,SW,223,0.0,-999.0,84,0.00,,,0.00,,2013-08-04 10:42:00,
2013-08-04 05:53:00,78.0,73.0,29.66,SW,223,0.0,-999.0,84,0.00,,,0.00,,2013-08-04 10:53:00,
2013-08-04 06:02:00,78.0,73.0,29.66,SW,223,0.0,-999.0,84,0.00,,,0.00,,2013-08-04 11:02:00,
2013-08-04 06:12:00,78.0,73.0,29.67,SW,223,0.0,-999.0,85,0.00,,,0.00,,2013-08-04 11:12:00,
2013-08-04 06:22:00,77.0,72.0,29.67,SW,223,0.0,-999.0,85,0.00,,,0.00,,2013-08-04 11:22:00,
2013-08-04 06:32:00,77.0,72.0,29.67,SW,223,0.0,-999.0,86,0.00,,,0.00,,2013-08-04 11:32:00,
2013-08-04 06:42:00,77.0,72.0,29.68,SW,223,0.0,-999.0,86,0.00,,,0.00,,2013-08-04 11:42:00,
2013-08-04 06:52:00,77.0,72.0,29.68,SW,223,0.0,-999.0,86,0.00,,,0.00,,2013-08-04 11:52:00,
2013-08-04 07:02:00,77.0,72.0,29.68,SW,223,0.0,-999.0,86,0.00,,,0.00,,2013-08-04 12:02:00,
2013-08-04 07:12:00,77.0,72.0,29.68,SW,223,0.0,-999.0,86,0.00,,,0.00,,2013-08-04 12:12:00,
2013-08-04 07:22:00,77.0,72.0,29.68,SW,223,0.0,-999.0,86,0.00,,,0.00,,2013-08-04 12:22:00,
2013-08-04 07:32:00,77.0,73.0,29.69,SW,223,0.0,-999.0,87,0.00,,,0.00,,2013-08-04 12:32:00,
2013-08-04 07:43:00,77.0,73.0,29.69,SW,223,0.0,-999.0,87,0.00,,,0.00,,2013-08-04 12:43:00,
2013-08-04 07:53:00,77.0,73.0,29.70,SW,223,0.0,-999.0,87,0.00,,,0.00,,2013-08-04 12:53:00,
2013-08-04 08:02:00,77.0,73.0,29.70,SW,223,0.0,-999.0,87,0.00,,,0.00,,2013-08-04 13:02:00,
2013-08-04 08:12:00,78.0,74.0,29.70,SW,223,0.0,-999.0,87,0.00,,,0.00,,2013-08-04 13:12:00,
2013-08-04 08:22:00,79.0,74.0,29.70,South,175,0.0,-999.0,86,0.00,,,0.00,,2013-08-04 13:22:00,
2013-08-04 08:32:00,79.0,74.0,29.70,SSE,161,1.0,-999.0,85,0.00,,,0.00,,2013-08-04 13:32:00,
2013-08-04 08:43:00,79.0,74.0,29.71,SSE,161,0.0,-999.0,84,0.00,,,0.00,,2013-08-04 13:43:00,
2013-08-04 08:52:00,80.0,74.0,29.71,SSE,163,2.0,-999.0,81,0.00,,,0.00,,2013-08-04 13:52:00,
2013-08-04 09:02:00,81.0,74.0,29.72,South,186,1.0,-999.0,80,0.00,,,0.00,,2013-08-04 14:02:00,
2013-08-04 09:12:00,81.0,74.0,29.72,South,186,1.0,-999.0,80,0.00,,,0.00,,2013-08-04 14:12:00,
2013-08-04 09:22:00,81.0,74.0,29.72,WSW,237,0.0,-999.0,79,0.00,,,0.00,,2013-08-04 14:22:00,
2013-08-04 09:32:00,82.0,75.0,29.72,NE,44,1.0,-999.0,79,0.00,,,0.00,,2013-08-04 14:32:00,
2013-08-04 09:42:00,82.0,74.0,29.72,SE,132,3.0,-999.0,77,0.00,,,0.00,,2013-08-04 14:42:00,
2013-08-04 10:02:00,82.0,74.0,29.72,ESE,105,0.0,-999.0,77,0.00,,,0.00,,2013-08-04 15:02:00,
2013-08-04 10:12:00,83.0,74.0,29.72,South,188,0.0,-999.0,75,0.00,,,0.00,,2013-08-04 15:12:00,
2013-08-04 10:22:00,84.0,75.0,29.72,SSE,165,0.0,-999.0,74,0.00,,,0.00,,2013-08-04 15:22:00,
2013-08-04 10:32:00,84.0,75.0,29.72,SSE,165,0.0,-999.0,74,0.00,,,0.00,,2013-08-04 15:32:00,
2013-08-04 10:42:00,85.0,74.0,29.72,SSE,150,0.0,-999.0,69,0.00,,,0.00,,2013-08-04 15:42:00,
2013-08-04 10:53:00,86.0,74.0,29.72,SSW,198,0.0,-999.0,68,0.00,,,0.00,,2013-08-04 15:53:00,
2013-08-04 11:02:00,86.0,74.0,29.72,SSW,198,0.0,-999.0,68,0.00,,,0.00,,2013-08-04 16:02:00,
2013-08-04 11:12:00,87.0,73.0,29.72,ESE,110,2.0,-999.0,63,0.00,,,0.00,,2013-08-04 16:12:00,
2013-08-04 11:22:00,87.0,73.0,29.72,ESE,110,2.0,-999.0,63,0.00,,,0.00,,2013-08-04 16:22:00,
2013-08-04 11:33:00,87.0,73.0,29.72,SSW,206,0.0,-999.0,64,0.00,,,0.00,,2013-08-04 16:33:00,
2013-08-04 11:42:00,87.0,72.0,29.71,SSE,154,0.0,-999.0,62,0.00,,,0.00,,2013-08-04 16:42:00,
2013-08-04 11:53:00,87.0,72.0,29.71,SSE,154,0.0,-999.0,62,0.00,,,0.00,,2013-08-04 16:53:00,
2013-08-04 12:02:00,89.0,72.0,29.71,ESE,109,1.0,-999.0,58,0.00,,,0.00,,2013-08-04 17:02:00,
2013-08-04 12:12:00,90.0,73.0,29.71,ENE,70,3.0,-999.0,57,0.00,,,0.00,,2013-08-04 17:12:00,
2013-08-04 12:22:00,90.0,73.0,29.71,ENE,70,3.0,-999.0,57,0.00,,,0.00,,2013-08-04 17:22:00,
2013-08-04 12:32:00,90.0,73.0,29.70,ENE,75,3.0,-999.0,57,0.00,,,0.00,,2013-08-04 17:32:00,
2013-08-04 12:43:00,91.0,73.0,29.70,SW,217,5.0,-999.0,55,0.00,,,0.00,,2013-08-04 17:43:00,
2013-08-04 12:53:00,91.0,73.0,29.70,ESE,119,3.0,-999.0,55,0.00,,,0.00,,2013-08-04 17:53:00,
2013-08-04 13:02:00,91.0,72.0,29.70,South,188,5.0,-999.0,54,0.00,,,0.00,,2013-08-04 18:02:00,
2013-08-04 13:12:00,91.0,73.0,29.69,SW,215,4.0,-999.0,55,0.00,,,0.00,,2013-08-04 18:12:00,
2013-08-04 13:22:00,91.0,73.0,29.69,South,188,0.0,-999.0,55,0.00,,,0.00,,2013-08-04 18:22:00,
2013-08-04 13:33:00,93.0,73.0,29.68,SE,146,1.0,-999.0,52,0.00,,,0.00,,2013-08-04 18:33:00,
2013-08-04 13:43:00,93.0,73.0,29.68,SE,146,1.0,-999.0,52,0.00,,,0.00,,2013-08-04 18:43:00,
2013-08-04 13:52:00,93.0,72.0,29.68,South,191,0.0,-999.0,50,0.00,,,0.00,,2013-08-04 18:52:00,
2013-08-04 14:02:00,94.0,72.0,29.66,SE,126,2.0,-999.0,49,0.00,,,0.00,,2013-08-04 19:02:00,
2013-08-04 14:12:00,93.0,72.0,29.66,South,175,4.0,-999.0,50,0.00,,,0.00,,2013-08-04 19:12:00,
2013-08-04 14:22:00,93.0,72.0,29.66,South,175,4.0,-999.0,50,0.00,,,0.00,,2013-08-04 19:22:00,
2013-08-04 14:33:00,94.0,72.0,29.66,SE,132,0.0,-999.0,50,0.00,,,0.00,,2013-08-04 19:33:00,
2013-08-04 14:43:00,94.0,72.0,29.66,SE,132,0.0,-999.0,50,0.00,,,0.00,,2013-08-04 19:43:00,
2013-08-04 14:52:00,94.0,72.0,29.65,South,173,3.0,-999.0,50,0.00,,,0.00,,2013-08-04 19:52:00,
2013-08-04 15:02:00,94.0,72.0,29.65,South,173,3.0,-999.0,50,0.00,,,0.00,,2013-08-04 20:02:00,
2013-08-04 15:12:00,94.0,71.0,29.64,East,98,6.0,-999.0,48,0.00,,,0.00,,2013-08-04 20:12:00,
2013-08-04 15:22:00,95.0,72.0,29.64,SE,132,1.0,-999.0,47,0.00,,,0.00,,2013-08-04 20:22:00,
2013-08-04 15:33:00,95.0,71.0,29.64,SSW,197,5.0,-999.0,46,0.00,,,0.00,,2013-08-04 20:33:00,
2013-08-04 15:42:00,95.0,70.0,29.63,South,169,1.0,-999.0,45,0.00,,,0.00,,2013-08-04 20:42:00,
2013-08-04 15:53:00,96.0,71.0,29.63,ENE,77,4.0,-999.0,45,0.00,,,0.00,,2013-08-04 20:53:00,
2013-08-04 16:02:00,96.0,70.0,29.62,ESE,121,1.0,-999.0,43,0.00,,,0.00,,2013-08-04 21:02:00,
2013-08-04 16:12:00,96.0,71.0,29.62,SE,135,0.0,-999.0,44,0.00,,,0.00,,2013-08-04 21:12:00,
2013-08-04 16:22:00,96.0,71.0,29.62,ESE,121,0.0,-999.0,44,0.00,,,0.00,,2013-08-04 21:22:00,
2013-08-04 16:32:00,96.0,68.0,29.61,East,82,1.0,-999.0,41,0.00,,,0.00,,2013-08-04 21:32:00,
2013-08-04 16:43:00,96.0,70.0,29.61,ESE,104,0.0,-999.0,43,0.00,,,0.00,,2013-08-04 21:43:00,
2013-08-04 16:53:00,97.0,70.0,29.61,SSE,155,6.0,-999.0,42,0.00,,,0.00,,2013-08-04 21:53:00,
2013-08-04 17:02:00,97.0,70.0,29.60,East,95,1.0,-999.0,42,0.00,,,0.00,,2013-08-04 22:02:00,
2013-08-04 17:12:00,97.0,70.0,29.60,ESE,117,0.0,-999.0,42,0.00,,,0.00,,2013-08-04 22:12:00,
2013-08-04 17:22:00,97.0,69.0,29.60,ESE,107,3.0,-999.0,41,0.00,,,0.00,,2013-08-04 22:22:00,
2013-08-04 17:32:00,97.0,69.0,29.59,SE,140,3.0,-999.0,40,0.00,,,0.00,,2013-08-04 22:32:00,
2013-08-04 17:43:00,97.0,69.0,29.59,SE,138,2.0,-999.0,41,0.00,,,0.00,,2013-08-04 22:43:00,
2013-08-04 17:53:00,97.0,69.0,29.59,SSE,163,2.0,-999.0,40,0.00,,,0.00,,2013-08-04 22:53:00,
2013-08-04 18:02:00,97.0,68.0,29.59,SE,132,3.0,-999.0,39,0.00,,,0.00,,2013-08-04 23:02:00,
2013-08-04 18:11:00,97.0,69.0,29.59,SSW,193,0.0,-999.0,41,0.00,,,0.00,,2013-08-04 23:11:00,
2013-08-04 18:22:00,97.0,69.0,29.59,SSW,193,0.0,-999.0,41,0.00,,,0.00,,2013-08-04 23:22:00,
2013-08-04 18:32:00,96.0,68.0,29.59,SSE,152,0.0,-999.0,41,0.00,,,0.00,,2013-08-04 23:32:00,
2013-08-04 18:43:00,96.0,68.0,29.59,SSE,152,0.0,-999.0,41,0.00,,,0.00,,2013-08-04 23:43:00,
2013-08-04 18:53:00,96.0,69.0,29.58,SE,128,2.0,-999.0,42,0.00,,,0.00,,2013-08-04 23:53:00,
2013-08-04 19:02:00,96.0,68.0,29.58,South,169,0.0,-999.0,41,0.00,,,0.00,,2013-08-05 00:02:00,
2013-08-04 19:12:00,96.0,69.0,29.57,ESE,115,0.0,-999.0,42,0.00,,,0.00,,2013-08-05 00:12:00,
2013-08-04 19:22:00,96.0,70.0,29.57,SE,128,0.0,-999.0,43,0.00,,,0.00,,2013-08-05 00:22:00,
2013-08-04 19:32:00,95.0,68.0,29.57,SE,140,0.0,-999.0,42,0.00,,,0.00,,2013-08-05 00:32:00,
2013-08-04 19:42:00,95.0,68.0,29.57,SE,140,0.0,-999.0,42,0.00,,,0.00,,2013-08-05 00:42:00,
2013-08-04 19:52:00,95.0,69.0,29.57,SE,140,0.0,-999.0,43,0.00,,,0.00,,2013-08-05 00:52:00,
2013-08-04 20:02:00,95.0,70.0,29.57,SE,140,0.0,-999.0,44,0.00,,,0.00,,2013-08-05 01:02:00,
2013-08-04 20:12:00,94.0,69.0,29.57,SE,140,0.0,-999.0,45,0.00,,,0.00,,2013-08-05 01:12:00,
2013-08-04 20:22:00,93.0,69.0,29.57,SE,140,0.0,-999.0,46,0.00,,,0.00,,2013-08-05 01:22:00,
2013-08-04 20:33:00,93.0,70.0,29.57,SE,140,1.0,-999.0,47,0.00,,,0.00,,2013-08-05 01:33:00,
2013-08-04 20:42:00,92.0,69.0,29.58,SE,140,0.0,-999.0,47,0.00,,,0.00,,2013-08-05 01:42:00,
2013-08-04 20:52:00,92.0,71.0,29.58,SE,140,0.0,-999.0,50,0.00,,,0.00,,2013-08-05 01:52:00,
2013-08-04 21:02:00,91.0,70.0,29.58,SE,140,0.0,-999.0,51,0.00,,,0.00,,2013-08-05 02:02:00,
2013-08-04 21:12:00,91.0,70.0,29.58,SE,140,0.0,-999.0,51,0.00,,,0.00,,2013-08-05 02:12:00,
2013-08-04 21:22:00,90.0,71.0,29.58,SE,140,0.0,-999.0,53,0.00,,,0.00,,2013-08-05 02:22:00,
2013-08-04 21:33:00,87.0,69.0,29.59,SE,140,0.0,-999.0,56,0.00,,,0.00,,2013-08-05 02:33:00,
2013-08-04 21:43:00,87.0,70.0,29.59,SE,140,0.0,-999.0,57,0.00,,,0.00,,2013-08-05 02:43:00,
2013-08-04 21:53:00,87.0,69.0,29.60,ESE,112,1.0,-999.0,56,0.00,,,0.00,,2013-08-05 02:53:00,
2013-08-04 22:02:00,89.0,70.0,29.61,South,172,2.0,-999.0,54,0.00,,,0.00,,2013-08-05 03:02:00,
2013-08-04 22:12:00,90.0,71.0,29.61,SE,138,1.0,-999.0,54,0.00,,,0.00,,2013-08-05 03:12:00,
2013-08-04 22:22:00,90.0,71.0,29.62,SSE,155,3.0,-999.0,54,0.00,,,0.00,,2013-08-05 03:22:00,
2013-08-04 22:32:00,89.0,70.0,29.62,SE,126,1.0,-999.0,54,0.00,,,0.00,,2013-08-05 03:32:00,
2013-08-04 22:52:00,89.0,71.0,29.63,South,171,4.0,-999.0,55,0.00,,,0.00,,2013-08-05 03:52:00,
2013-08-04 23:02:00,88.0,70.0,29.64,ESE,105,5.0,-999.0,56,0.00,,,0.00,,2013-08-05 04:02:00,
2013-08-04 23:12:00,88.0,70.0,29.64,East,86,3.0,-999.0,56,0.00,,,0.00,,2013-08-05 04:12:00,
2013-08-04 23:22:00,88.0,70.0,29.64,East,86,3.0,-999.0,56,0.00,,,0.00,,2013-08-05 04:22:00,
2013-08-04 23:32:00,87.0,70.0,29.65,SSE,154,1.0,-999.0,58,0.00,,,0.00,,2013-08-05 04:32:00,
2013-08-04 23:43:00,87.0,71.0,29.65,SSE,166,1.0,-999.0,59,0.00,,,0.00,,2013-08-05 04:43:00,
2013-08-04 23:52:00,86.0,70.0,29.65,SE,124,1.0,-999.0,59,0.00,,,0.00,,2013-08-05 04:52:00,